Time;durP1;ratioP1;P1;durP2;ratioP2;P2;SDS_P1;SDS_P2;PMS_P1;PMS_P2;Temp;Humidity;BMP_temperature;BMP_pressure;BME280_temperature;BME280_humidity;BME280_pressure;Samples;Min_cycle;Max_cycle;Signal;HPM_P1;HPM_P2
2022/10/18 00:01:50;;;;;;;5.90;4.85;;;17.70;99.90;;;;;;5027800;28;20243;-88
2022/10/18 00:04:16;;;;;;;6.88;5.05;;;17.70;99.90;;;;;;5027906;28;20185;-84
2022/10/18 00:06:42;;;;;;;6.28;4.70;;;17.70;99.90;;;;;;5027775;28;20219;-88
2022/10/18 00:09:08;;;;;;;6.40;5.18;;;17.70;99.90;;;;;;5027437;28;20668;-85
2022/10/18 00:11:34;;;;;;;5.57;5.07;;;17.60;99.90;;;;;;5044337;28;20230;-86
2022/10/18 00:14:00;;;;;;;7.57;5.15;;;17.50;99.90;;;;;;5028367;28;20177;-87
2022/10/18 00:16:26;;;;;;;5.93;4.95;;;17.60;99.90;;;;;;5045221;28;20227;-87
2022/10/18 00:18:51;;;;;;;6.35;4.85;;;17.60;99.90;;;;;;5027288;28;20243;-87
2022/10/18 00:21:19;;;;;;;8.63;4.93;;;17.60;99.90;;;;;;5027686;28;20196;-87
2022/10/18 00:23:47;;;;;;;8.88;5.32;;;17.60;99.90;;;;;;5043603;28;20203;-86
2022/10/18 00:26:15;;;;;;;5.75;5.10;;;17.60;99.90;;;;;;5043482;28;20180;-87
2022/10/18 00:28:41;;;;;;;6.40;5.85;;;17.50;99.90;;;;;;5043629;28;20185;-87
2022/10/18 00:31:14;;;;;;;6.03;4.93;;;17.50;99.90;;;;;;5010792;28;20216;-86
2022/10/18 00:33:41;;;;;;;4.95;4.40;;;17.50;99.90;;;;;;5043257;28;20251;-88
2022/10/18 00:36:07;;;;;;;6.82;4.85;;;17.60;99.90;;;;;;5027594;28;20212;-85
2022/10/18 00:38:33;;;;;;;6.40;4.78;;;17.60;99.90;;;;;;5011072;28;20185;-87
2022/10/18 00:40:59;;;;;;;4.82;4.43;;;17.60;99.90;;;;;;5027144;28;20185;-86
2022/10/18 00:43:25;;;;;;;5.65;5.00;;;17.60;99.90;;;;;;5026477;28;20209;-88
2022/10/18 00:45:51;;;;;;;6.57;5.25;;;17.70;99.90;;;;;;5027742;28;20184;-87
2022/10/18 00:48:18;;;;;;;5.45;5.05;;;17.70;99.90;;;;;;5044397;28;20532;-86
2022/10/18 00:50:45;;;;;;;5.55;5.10;;;17.80;99.90;;;;;;5028598;28;20192;-89
2022/10/18 00:53:15;;;;;;;5.65;5.07;;;17.70;99.90;;;;;;5028371;28;20200;-86
2022/10/18 00:55:41;;;;;;;5.32;4.93;;;17.70;99.90;;;;;;5030238;28;20204;-87
2022/10/18 00:58:08;;;;;;;8.60;5.55;;;17.70;99.90;;;;;;5056074;28;20204;-93
2022/10/18 01:00:38;;;;;;;7.35;5.72;;;17.70;99.90;;;;;;5056648;28;20185;-89
2022/10/18 01:03:04;;;;;;;8.70;5.30;;;17.60;99.90;;;;;;5040275;28;20192;-85
2022/10/18 01:05:30;;;;;;;6.55;4.82;;;17.60;99.90;;;;;;5056866;28;20193;-89
2022/10/18 01:08:20;;;;;;;6.65;5.05;;;17.60;99.90;;;;;;5024821;28;20181;-86
2022/10/18 01:11:25;;;;;;;7.45;5.30;;;17.60;99.90;;;;;;5057105;28;20185;-87
2022/10/18 01:14:45;;;;;;;7.00;6.15;;;17.60;99.90;;;;;;5055504;28;20208;-86
2022/10/18 01:17:37;;;;;;;8.73;4.88;;;17.60;99.90;;;;;;4967691;28;20201;-84
2022/10/18 01:20:08;;;;;;;5.38;4.88;;;17.60;99.90;;;;;;5004325;28;20189;-87
2022/10/18 01:22:34;;;;;;;6.15;4.85;;;17.60;99.90;;;;;;5043501;28;20686;-86
2022/10/18 01:25:04;;;;;;;6.07;5.45;;;17.70;99.90;;;;;;5043673;28;20625;-87
2022/10/18 01:27:48;;;;;;;10.05;5.65;;;17.70;99.90;;;;;;5043414;28;20203;-86
2022/10/18 01:30:38;;;;;;;7.38;5.10;;;17.70;99.90;;;;;;5027650;28;20657;-85
2022/10/18 01:33:45;;;;;;;6.10;5.47;;;17.60;99.90;;;;;;5036640;28;20210;-86
2022/10/18 01:36:27;;;;;;;7.13;5.07;;;17.60;99.90;;;;;;5011001;28;20173;-88
2022/10/18 01:38:56;;;;;;;7.97;4.72;;;17.40;99.90;;;;;;5045502;28;20245;-86
2022/10/18 01:41:24;;;;;;;7.10;5.18;;;17.50;99.90;;;;;;5044669;28;20174;-87
2022/10/18 01:43:58;;;;;;;9.30;5.30;;;17.50;99.90;;;;;;5027302;28;20283;-86
2022/10/18 01:46:25;;;;;;;5.57;5.00;;;17.40;99.90;;;;;;5043690;28;20652;-89
2022/10/18 01:48:52;;;;;;;7.05;5.47;;;17.40;99.90;;;;;;5044379;28;20181;-87
2022/10/18 01:51:26;;;;;;;7.55;5.88;;;17.40;99.90;;;;;;5026475;28;20204;-89
2022/10/18 01:53:52;;;;;;;7.53;5.15;;;17.30;99.90;;;;;;5029192;28;20185;-89
2022/10/18 01:56:50;;;;;;;6.03;5.10;;;17.30;99.90;;;;;;5046831;28;20580;-86
2022/10/18 01:59:22;;;;;;;6.00;5.40;;;17.40;99.90;;;;;;5045886;28;20185;-87
2022/10/18 02:01:57;;;;;;;6.38;5.72;;;17.40;99.90;;;;;;5046327;28;20197;-86
2022/10/18 02:04:35;;;;;;;6.13;5.20;;;17.30;99.90;;;;;;5046442;28;20250;-86
2022/10/18 02:07:10;;;;;;;5.20;4.80;;;17.40;99.90;;;;;;5046154;28;20185;-88
2022/10/18 02:09:42;;;;;;;9.10;5.50;;;17.40;99.90;;;;;;5046742;28;20196;-87
2022/10/18 02:12:11;;;;;;;6.00;5.40;;;17.40;99.90;;;;;;5047507;28;20216;-86
2022/10/18 02:14:38;;;;;;;6.30;5.50;;;17.20;99.90;;;;;;5047560;28;20255;-86
2022/10/18 02:17:08;;;;;;;5.95;5.32;;;17.10;99.90;;;;;;5029552;28;20208;-87
2022/10/18 02:19:45;;;;;;;6.32;5.72;;;17.10;99.90;;;;;;5009407;28;20725;-88
2022/10/18 02:22:13;;;;;;;11.00;5.70;;;17.10;99.90;;;;;;5026722;28;20201;-86
2022/10/18 02:24:45;;;;;;;5.72;5.22;;;17.00;99.90;;;;;;5026294;28;20239;-85
2022/10/18 02:27:11;;;;;;;6.40;5.15;;;17.00;99.90;;;;;;5026202;28;20204;-86
2022/10/18 02:29:38;;;;;;;6.07;4.93;;;17.00;99.90;;;;;;5011151;28;20189;-86
2022/10/18 02:32:32;;;;;;;7.50;4.95;;;17.10;99.90;;;;;;4999361;28;20224;-86
2022/10/18 02:35:07;;;;;;;6.50;5.03;;;17.20;99.90;;;;;;5030382;28;20189;-88
2022/10/18 02:37:37;;;;;;;10.57;5.88;;;17.20;99.90;;;;;;5052999;28;20679;-86
2022/10/18 02:40:07;;;;;;;7.15;5.22;;;17.30;99.90;;;;;;5052882;28;20218;-86
2022/10/18 02:42:38;;;;;;;8.02;5.50;;;17.30;99.90;;;;;;5051182;28;20200;-85
2022/10/18 02:45:05;;;;;;;10.02;5.40;;;17.20;99.90;;;;;;5033050;28;20296;-88
2022/10/18 02:47:31;;;;;;;5.63;5.10;;;17.20;99.90;;;;;;5048068;28;20599;-89
2022/10/18 02:49:57;;;;;;;6.88;4.85;;;17.10;99.90;;;;;;5050951;28;20214;-86
2022/10/18 02:52:23;;;;;;;6.18;5.05;;;17.10;99.90;;;;;;5048655;28;20320;-88
2022/10/18 02:54:48;;;;;;;5.97;5.30;;;17.10;99.90;;;;;;5056081;28;20180;-89
2022/10/18 02:57:14;;;;;;;5.78;5.00;;;17.10;99.90;;;;;;5057503;28;20215;-88
2022/10/18 02:59:40;;;;;;;8.07;4.95;;;17.20;99.90;;;;;;5053912;28;20192;-88
2022/10/18 03:02:05;;;;;;;6.15;5.20;;;17.20;99.90;;;;;;5057925;28;20591;-89
2022/10/18 03:04:31;;;;;;;10.90;5.10;;;17.10;99.90;;;;;;5043350;28;20200;-89
2022/10/18 03:06:57;;;;;;;5.60;5.05;;;17.10;99.90;;;;;;5048606;28;20189;-89
2022/10/18 03:09:22;;;;;;;5.30;4.80;;;17.20;99.90;;;;;;5050406;28;20219;-89
2022/10/18 03:11:48;;;;;;;6.57;5.18;;;17.20;99.90;;;;;;5046021;28;20221;-87
2022/10/18 03:14:14;;;;;;;7.60;5.15;;;17.20;99.90;;;;;;5058266;28;20413;-88
2022/10/18 03:16:40;;;;;;;5.43;4.93;;;17.20;99.90;;;;;;5043015;28;20207;-88
2022/10/18 03:19:05;;;;;;;7.03;4.85;;;17.20;99.90;;;;;;5049648;28;20548;-88
2022/10/18 03:21:31;;;;;;;5.15;4.75;;;17.00;99.90;;;;;;5044932;28;20241;-87
2022/10/18 03:23:58;;;;;;;8.32;4.85;;;17.10;99.90;;;;;;5050341;28;20259;-88
2022/10/18 03:26:24;;;;;;;7.82;5.43;;;17.10;99.90;;;;;;5055655;28;20240;-86
2022/10/18 03:28:50;;;;;;;8.07;5.10;;;17.10;99.90;;;;;;5049736;28;20211;-88
2022/10/18 03:31:15;;;;;;;11.82;4.97;;;16.90;99.90;;;;;;5051898;28;20669;-88
2022/10/18 03:33:41;;;;;;;10.40;5.35;;;16.60;99.90;;;;;;5052879;28;20209;-87
2022/10/18 03:36:07;;;;;;;6.90;5.40;;;16.60;99.90;;;;;;5042665;28;20276;-88
2022/10/18 03:38:32;;;;;;;13.02;5.78;;;16.50;99.90;;;;;;5052455;28;20204;-88
2022/10/18 03:40:58;;;;;;;5.57;5.07;;;16.50;99.90;;;;;;5047249;28;20597;-88
2022/10/18 03:43:24;;;;;;;5.85;5.30;;;16.50;99.90;;;;;;5046275;28;20208;-88
2022/10/18 03:45:50;;;;;;;6.20;5.50;;;16.60;99.90;;;;;;5047019;28;20181;-89
2022/10/18 03:48:16;;;;;;;6.70;5.22;;;16.70;99.90;;;;;;5049205;28;20251;-88
2022/10/18 03:50:42;;;;;;;5.57;4.78;;;16.70;99.90;;;;;;5050522;28;20196;-88
2022/10/18 03:53:08;;;;;;;5.53;4.75;;;16.70;99.90;;;;;;5054187;28;20632;-87
2022/10/18 03:55:34;;;;;;;8.10;5.00;;;16.60;99.90;;;;;;5055369;28;20188;-86
2022/10/18 03:57:59;;;;;;;7.15;4.70;;;16.60;99.90;;;;;;5054921;28;20221;-86
2022/10/18 04:00:25;;;;;;;7.25;4.78;;;16.70;99.90;;;;;;5049882;28;20224;-89
2022/10/18 04:02:51;;;;;;;10.05;5.35;;;16.60;99.90;;;;;;5046138;28;20231;-88
2022/10/18 04:05:16;;;;;;;6.45;5.30;;;16.60;99.90;;;;;;5050252;28;20641;-89
2022/10/18 04:07:42;;;;;;;7.30;5.30;;;16.50;99.90;;;;;;5026363;28;20193;-88
2022/10/18 04:10:08;;;;;;;7.63;5.05;;;16.50;99.90;;;;;;5055643;28;20535;-87
2022/10/18 04:12:34;;;;;;;10.02;5.55;;;16.60;99.90;;;;;;5053577;28;20254;-88
2022/10/18 04:14:59;;;;;;;8.00;5.38;;;16.70;99.90;;;;;;5045708;28;20204;-90
2022/10/18 04:17:25;;;;;;;6.82;5.47;;;16.70;99.90;;;;;;5044413;28;20195;-89
2022/10/18 04:19:50;;;;;;;7.82;5.40;;;16.70;99.90;;;;;;5050013;28;20188;-88
2022/10/18 04:22:16;;;;;;;4.93;4.63;;;16.70;99.90;;;;;;5045604;28;20218;-87
2022/10/18 04:24:42;;;;;;;7.70;5.60;;;16.80;99.90;;;;;;5050876;28;20192;-87
2022/10/18 04:27:08;;;;;;;8.90;5.85;;;16.80;99.90;;;;;;5053324;28;20196;-87
2022/10/18 04:29:33;;;;;;;8.18;5.10;;;16.80;99.90;;;;;;5046832;28;20195;-87
2022/10/18 04:31:59;;;;;;;5.05;4.50;;;16.80;99.90;;;;;;5049204;28;20227;-86
2022/10/18 04:34:25;;;;;;;5.53;4.95;;;16.80;99.90;;;;;;5049977;28;20260;-87
2022/10/18 04:36:51;;;;;;;7.10;4.97;;;16.90;99.90;;;;;;5031865;28;20196;-87
2022/10/18 04:39:17;;;;;;;6.85;4.90;;;16.90;99.90;;;;;;5044239;28;20192;-86
2022/10/18 04:41:42;;;;;;;4.38;4.05;;;16.80;99.90;;;;;;5043444;28;20212;-85
2022/10/18 04:44:08;;;;;;;6.90;4.63;;;16.90;99.90;;;;;;5050889;28;20199;-85
2022/10/18 04:46:34;;;;;;;6.25;5.38;;;16.90;99.90;;;;;;5057760;28;20241;-85
2022/10/18 04:49:00;;;;;;;6.30;5.18;;;16.90;99.90;;;;;;5054179;28;20268;-88
2022/10/18 04:51:29;;;;;;;10.70;5.13;;;16.90;99.90;;;;;;5049262;28;20208;-86
2022/10/18 04:53:55;;;;;;;6.25;5.55;;;16.90;99.90;;;;;;5046437;28;20195;-87
2022/10/18 04:56:21;;;;;;;9.77;5.07;;;16.80;99.90;;;;;;5042394;28;20244;-87
2022/10/18 04:58:47;;;;;;;6.80;4.85;;;16.90;99.90;;;;;;5058348;28;20188;-87
2022/10/18 05:01:12;;;;;;;5.88;5.38;;;16.90;99.90;;;;;;5043905;28;20189;-87
2022/10/18 05:03:38;;;;;;;5.95;5.15;;;16.90;99.90;;;;;;5056613;28;20213;-87
2022/10/18 05:06:04;;;;;;;7.20;5.40;;;16.90;99.90;;;;;;5051150;28;20192;-87
2022/10/18 05:08:32;;;;;;;5.90;5.40;;;16.90;99.90;;;;;;5046832;28;20184;-87
2022/10/18 05:10:59;;;;;;;6.85;5.05;;;17.00;99.90;;;;;;5047040;28;20221;-87
2022/10/18 05:13:25;;;;;;;6.47;5.10;;;16.90;99.90;;;;;;5051638;28;20204;-87
2022/10/18 05:15:51;;;;;;;6.25;4.97;;;16.90;99.90;;;;;;5043106;28;20556;-87
2022/10/18 05:18:16;;;;;;;9.02;5.68;;;16.90;99.90;;;;;;5054107;28;20191;-86
2022/10/18 05:20:42;;;;;;;5.50;5.00;;;16.90;99.90;;;;;;5051864;28;20165;-86
2022/10/18 05:23:11;;;;;;;5.78;5.03;;;16.80;99.90;;;;;;5051468;28;20224;-87
2022/10/18 05:25:43;;;;;;;5.93;5.20;;;16.70;99.90;;;;;;5048389;28;20219;-87
2022/10/18 05:28:09;;;;;;;5.88;5.28;;;16.70;99.90;;;;;;5046143;28;20189;-85
2022/10/18 05:30:39;;;;;;;6.28;5.22;;;16.60;99.90;;;;;;5054339;28;20211;-87
2022/10/18 05:33:05;;;;;;;6.82;5.30;;;16.70;99.90;;;;;;5054445;28;20220;-87
2022/10/18 05:35:32;;;;;;;6.22;5.60;;;16.60;99.90;;;;;;5045905;28;20902;-86
2022/10/18 05:38:05;;;;;;;9.30;5.43;;;16.60;99.90;;;;;;5048132;28;20201;-87
2022/10/18 05:40:37;;;;;;;6.22;4.80;;;16.60;99.90;;;;;;5045434;28;20282;-86
2022/10/18 05:43:04;;;;;;;8.80;5.30;;;16.70;99.90;;;;;;5046930;28;20261;-87
2022/10/18 05:45:30;;;;;;;8.98;8.07;;;16.80;99.90;;;;;;5051547;28;20253;-86
2022/10/18 05:47:55;;;;;;;7.68;5.32;;;16.80;99.90;;;;;;5053678;28;20230;-87
2022/10/18 05:50:21;;;;;;;9.32;5.45;;;16.90;99.90;;;;;;5046955;28;20236;-86
2022/10/18 05:52:46;;;;;;;6.07;5.55;;;16.90;99.90;;;;;;5046168;28;20703;-85
2022/10/18 05:55:12;;;;;;;8.20;5.72;;;16.90;99.90;;;;;;5041258;28;20196;-87
2022/10/18 05:57:38;;;;;;;7.32;5.45;;;17.00;99.90;;;;;;5047995;28;20196;-86
2022/10/18 06:00:04;;;;;;;6.20;5.70;;;16.90;99.90;;;;;;5044812;28;20468;-86
2022/10/18 06:02:30;;;;;;;9.13;6.03;;;16.80;99.90;;;;;;5049557;28;20704;-86
2022/10/18 06:04:55;;;;;;;9.13;5.88;;;16.80;99.90;;;;;;5047409;28;20196;-86
2022/10/18 06:07:21;;;;;;;8.25;5.60;;;17.00;99.90;;;;;;5045059;28;20648;-86
2022/10/18 06:09:47;;;;;;;5.88;5.35;;;17.00;99.90;;;;;;5037502;28;20196;-86
2022/10/18 06:12:12;;;;;;;7.80;5.85;;;17.00;99.90;;;;;;5051108;28;20296;-87
2022/10/18 06:14:38;;;;;;;7.93;5.72;;;17.00;99.90;;;;;;5049896;28;20188;-87
2022/10/18 06:17:04;;;;;;;7.70;5.65;;;17.00;99.90;;;;;;5038551;28;20207;-86
2022/10/18 06:19:30;;;;;;;13.82;6.70;;;17.00;99.90;;;;;;5033700;28;20213;-86
2022/10/18 06:21:55;;;;;;;9.30;6.10;;;17.00;99.90;;;;;;5035340;28;20237;-87
2022/10/18 06:24:21;;;;;;;6.25;5.75;;;16.90;99.90;;;;;;5038335;28;20696;-86
2022/10/18 06:26:48;;;;;;;6.25;5.65;;;16.90;99.90;;;;;;5035266;28;20204;-86
2022/10/18 06:29:14;;;;;;;8.90;6.00;;;16.90;99.90;;;;;;5041513;28;20455;-86
2022/10/18 06:31:39;;;;;;;7.40;6.07;;;16.90;99.90;;;;;;5036888;28;20215;-86
2022/10/18 06:34:05;;;;;;;6.03;5.43;;;16.80;99.90;;;;;;5041532;28;20187;-86
2022/10/18 06:36:31;;;;;;;6.07;5.57;;;16.90;99.90;;;;;;5037665;28;20185;-86
2022/10/18 06:38:56;;;;;;;7.55;5.60;;;17.00;99.90;;;;;;5032479;28;20190;-87
2022/10/18 06:41:22;;;;;;;9.38;6.00;;;17.10;99.90;;;;;;5037347;28;20254;-86
2022/10/18 06:43:56;;;;;;;7.05;5.97;;;17.10;99.90;;;;;;5039055;28;20273;-86
2022/10/18 06:46:22;;;;;;;7.85;6.35;;;17.10;99.90;;;;;;5040504;28;20181;-87
2022/10/18 06:48:48;;;;;;;7.53;5.65;;;17.10;99.90;;;;;;5039531;28;20247;-86
2022/10/18 06:51:17;;;;;;;6.45;5.85;;;17.00;99.90;;;;;;5040128;28;20228;-86
2022/10/18 06:53:42;;;;;;;7.13;6.18;;;16.80;99.90;;;;;;5036196;28;21267;-86
2022/10/18 06:56:11;;;;;;;6.65;5.97;;;16.80;99.90;;;;;;5035304;28;20549;-87
2022/10/18 06:58:38;;;;;;;9.77;6.93;;;16.70;99.90;;;;;;5037908;28;20212;-86
2022/10/18 07:01:08;;;;;;;7.57;6.70;;;16.70;99.90;;;;;;5039729;28;20185;-85
2022/10/18 07:03:34;;;;;;;7.65;6.72;;;16.80;99.90;;;;;;5035058;28;20264;-85
2022/10/18 07:06:01;;;;;;;7.38;6.65;;;16.90;99.90;;;;;;5033972;28;21458;-86
2022/10/18 07:08:27;;;;;;;8.65;6.93;;;17.00;99.90;;;;;;5035142;28;20196;-85
2022/10/18 07:10:53;;;;;;;7.10;6.40;;;17.10;99.90;;;;;;5033845;28;20242;-84
2022/10/18 07:13:19;;;;;;;7.32;6.72;;;17.30;99.90;;;;;;5032305;28;20220;-86
2022/10/18 07:15:45;;;;;;;7.60;6.90;;;17.20;99.90;;;;;;5035532;28;20216;-86
2022/10/18 07:18:11;;;;;;;8.32;7.40;;;17.30;99.90;;;;;;5034338;28;20257;-86
2022/10/18 07:20:36;;;;;;;8.43;7.50;;;17.30;99.90;;;;;;5034180;28;20200;-86
2022/10/18 07:23:04;;;;;;;8.18;7.07;;;17.20;99.90;;;;;;5037069;28;20213;-86
2022/10/18 07:25:30;;;;;;;9.18;7.70;;;17.20;99.90;;;;;;5041534;28;20185;-86
2022/10/18 07:27:56;;;;;;;9.93;7.13;;;17.20;99.90;;;;;;5049324;28;20207;-86
2022/10/18 07:30:21;;;;;;;7.78;7.00;;;17.10;99.90;;;;;;5049933;28;20295;-86
2022/10/18 07:32:49;;;;;;;7.90;7.10;;;17.00;99.90;;;;;;5043745;28;20283;-85
2022/10/18 07:35:15;;;;;;;8.75;7.30;;;16.90;99.90;;;;;;5046803;28;20211;-84
2022/10/18 07:37:41;;;;;;;10.10;7.95;;;16.90;99.90;;;;;;5042747;28;20203;-87
2022/10/18 07:40:07;;;;;;;9.82;7.63;;;16.90;99.90;;;;;;5047984;28;20200;-86
2022/10/18 07:42:34;;;;;;;8.95;7.57;;;16.80;99.90;;;;;;5051816;28;20239;-87
2022/10/18 07:45:00;;;;;;;8.63;7.68;;;16.70;99.90;;;;;;5049710;28;20389;-87
2022/10/18 07:47:25;;;;;;;9.07;7.43;;;16.80;99.90;;;;;;5055429;28;20196;-87
2022/10/18 07:49:51;;;;;;;7.45;6.85;;;16.80;99.90;;;;;;5049712;28;20285;-88
2022/10/18 07:52:17;;;;;;;9.77;7.38;;;16.80;99.90;;;;;;5043654;28;20234;-87
2022/10/18 07:54:42;;;;;;;7.68;6.97;;;16.80;99.90;;;;;;5044258;28;20220;-86
2022/10/18 07:57:08;;;;;;;7.07;6.50;;;16.90;99.90;;;;;;5052470;28;20196;-86
2022/10/18 07:59:34;;;;;;;6.70;6.10;;;17.10;99.90;;;;;;5057566;28;20230;-87
2022/10/18 08:01:59;;;;;;;9.30;6.70;;;17.00;99.90;;;;;;5065483;28;20264;-85
2022/10/18 08:04:25;;;;;;;7.82;7.03;;;17.10;99.90;;;;;;5061902;28;20199;-86
2022/10/18 08:06:51;;;;;;;8.70;6.43;;;17.20;99.90;;;;;;5050454;28;20203;-86
2022/10/18 08:09:16;;;;;;;7.13;6.15;;;17.10;99.90;;;;;;5054380;28;20236;-87
2022/10/18 08:11:42;;;;;;;8.18;6.82;;;17.00;99.90;;;;;;5049573;28;20214;-87
2022/10/18 08:14:08;;;;;;;8.50;7.80;;;17.20;99.90;;;;;;5041658;28;20207;-87
2022/10/18 08:16:33;;;;;;;9.93;7.43;;;17.10;99.90;;;;;;5048705;28;20294;-87
2022/10/18 08:18:59;;;;;;;7.80;7.07;;;17.20;99.90;;;;;;5049095;28;20196;-87
2022/10/18 08:21:25;;;;;;;9.88;7.60;;;17.40;99.90;;;;;;5044294;28;20206;-88
2022/10/18 08:23:52;;;;;;;9.98;7.57;;;17.40;99.90;;;;;;5044498;28;20193;-87
2022/10/18 08:26:20;;;;;;;11.57;7.55;;;17.50;99.90;;;;;;5046147;28;20213;-87
2022/10/18 08:28:48;;;;;;;7.70;7.03;;;17.60;99.90;;;;;;5049812;28;20283;-86
2022/10/18 08:31:19;;;;;;;8.30;7.10;;;17.40;99.90;;;;;;5046753;28;20179;-87
2022/10/18 08:33:46;;;;;;;10.15;8.02;;;17.30;99.90;;;;;;5050252;28;20212;-87
2022/10/18 08:36:13;;;;;;;8.98;8.07;;;17.30;99.90;;;;;;5043915;28;20178;-84
2022/10/18 08:38:40;;;;;;;9.30;7.50;;;17.40;99.90;;;;;;5057650;28;20206;-85
2022/10/18 08:41:26;;;;;;;8.18;7.40;;;17.50;99.90;;;;;;5035936;28;20198;-85
2022/10/18 08:44:02;;;;;;;8.50;6.70;;;17.60;99.90;;;;;;5007469;28;20192;-87
2022/10/18 08:46:29;;;;;;;7.60;6.88;;;17.80;99.90;;;;;;5044685;28;20176;-85
2022/10/18 08:48:56;;;;;;;7.35;6.68;;;18.00;99.90;;;;;;5041985;28;20191;-85
2022/10/18 08:51:31;;;;;;;8.10;7.30;;;18.20;99.90;;;;;;5042052;28;20235;-87
2022/10/18 08:54:12;;;;;;;7.53;6.82;;;18.40;99.90;;;;;;5050194;28;20188;-86
2022/10/18 08:56:41;;;;;;;8.23;6.43;;;18.40;99.90;;;;;;5048422;28;20574;-85
2022/10/18 08:59:11;;;;;;;6.78;6.18;;;18.50;99.90;;;;;;5041657;28;20596;-85
2022/10/18 09:01:49;;;;;;;7.18;6.50;;;18.50;99.90;;;;;;5048261;28;20218;-85
2022/10/18 09:04:37;;;;;;;6.25;5.75;;;18.50;99.90;;;;;;5050745;28;20259;-86
2022/10/18 09:07:17;;;;;;;6.55;5.82;;;18.60;99.90;;;;;;5058133;28;20662;-87
2022/10/18 09:09:59;;;;;;;8.57;5.78;;;18.60;99.90;;;;;;5036793;28;20193;-86
2022/10/18 09:12:45;;;;;;;6.07;5.57;;;18.50;99.90;;;;;;5049957;28;20216;-87
2022/10/18 09:15:35;;;;;;;6.60;5.80;;;18.50;99.90;;;;;;5026068;28;20210;-86
2022/10/18 09:18:15;;;;;;;7.47;5.82;;;18.60;99.90;;;;;;5047661;28;20182;-86
2022/10/18 09:20:58;;;;;;;5.82;5.22;;;18.70;99.90;;;;;;5046158;28;20180;-87
2022/10/18 09:23:44;;;;;;;7.32;5.63;;;18.60;99.90;;;;;;5044130;28;20212;-87
2022/10/18 09:26:18;;;;;;;7.63;5.75;;;18.60;99.90;;;;;;5050707;28;20182;-86
2022/10/18 09:29:09;;;;;;;6.25;5.72;;;18.40;99.90;;;;;;5062811;28;20195;-87
2022/10/18 09:31:50;;;;;;;8.25;5.53;;;18.40;99.90;;;;;;5055794;28;20223;-88
2022/10/18 09:34:26;;;;;;;6.00;5.32;;;18.50;99.90;;;;;;5062175;28;20176;-88
2022/10/18 09:36:53;;;;;;;8.82;5.65;;;18.40;99.90;;;;;;5065896;28;20186;-86
2022/10/18 09:39:24;;;;;;;6.07;5.43;;;18.40;99.90;;;;;;5058885;28;20183;-87
2022/10/18 09:41:55;;;;;;;6.18;5.57;;;18.50;99.90;;;;;;5067840;28;20285;-86
2022/10/18 09:44:25;;;;;;;6.38;5.22;;;18.60;99.90;;;;;;5058006;28;20188;-86
2022/10/18 09:47:09;;;;;;;6.63;5.90;;;18.60;99.90;;;;;;5045132;28;20196;-86
2022/10/18 09:49:46;;;;;;;6.00;5.50;;;18.60;99.90;;;;;;5046017;28;20270;-86
2022/10/18 09:52:26;;;;;;;8.00;6.05;;;18.80;99.90;;;;;;5049764;28;20238;-86
2022/10/18 09:54:58;;;;;;;5.90;5.40;;;18.90;99.90;;;;;;5061228;28;20198;-88
2022/10/18 09:57:32;;;;;;;7.00;6.30;;;19.40;99.90;;;;;;5063326;28;20285;-87
2022/10/18 10:00:00;;;;;;;9.40;5.72;;;19.70;99.90;;;;;;5051667;28;20191;-87
2022/10/18 10:02:26;;;;;;;6.78;5.88;;;19.70;99.90;;;;;;5056125;28;20204;-86
2022/10/18 10:04:55;;;;;;;7.13;5.97;;;19.80;99.90;;;;;;5054375;28;20192;-85
2022/10/18 10:07:33;;;;;;;8.98;7.10;;;20.10;99.90;;;;;;5055745;28;20184;-86
2022/10/18 10:10:23;;;;;;;6.43;5.80;;;20.30;99.30;;;;;;5061567;28;20192;-87
2022/10/18 10:13:04;;;;;;;24.67;22.38;;;20.80;98.60;;;;;;5048541;28;20212;-88
2022/10/18 10:15:31;;;;;;;8.32;5.75;;;21.10;96.60;;;;;;5064800;28;20209;-86
2022/10/18 10:18:00;;;;;;;7.53;6.10;;;21.10;94.60;;;;;;5050165;28;20177;-86
2022/10/18 10:20:46;;;;;;;8.57;6.00;;;21.30;97.50;;;;;;5050023;28;20177;-85
2022/10/18 10:23:20;;;;;;;6.60;5.78;;;21.30;96.80;;;;;;5040289;28;20218;-87
2022/10/18 10:25:58;;;;;;;10.30;5.63;;;21.10;97.10;;;;;;5054902;28;20234;-85
2022/10/18 10:28:29;;;;;;;9.18;5.65;;;21.10;96.00;;;;;;5047361;28;20188;-89
2022/10/18 10:31:17;;;;;;;6.40;5.55;;;21.10;97.70;;;;;;5050699;28;20268;-86
2022/10/18 10:33:48;;;;;;;6.78;5.68;;;21.30;96.30;;;;;;5027545;28;20257;-88
2022/10/18 10:36:19;;;;;;;7.07;5.80;;;21.30;94.70;;;;;;5052080;28;20625;-87
2022/10/18 10:38:45;;;;;;;9.40;5.68;;;21.60;96.90;;;;;;5048560;28;20187;-86
2022/10/18 10:41:21;;;;;;;6.45;5.90;;;21.80;95.00;;;;;;5044548;28;20196;-86
2022/10/18 10:43:49;;;;;;;7.20;6.05;;;22.40;92.30;;;;;;5057433;28;20207;-88
2022/10/18 10:46:17;;;;;;;7.43;5.10;;;22.70;91.70;;;;;;5053176;28;20224;-87
2022/10/18 10:48:56;;;;;;;5.70;5.10;;;22.50;88.20;;;;;;5054123;28;20180;-86
2022/10/18 10:51:37;;;;;;;6.97;4.90;;;22.30;90.20;;;;;;5045126;28;20193;-86
2022/10/18 10:54:19;;;;;;;5.18;4.68;;;22.10;90.30;;;;;;5044706;28;20193;-88
2022/10/18 10:57:10;;;;;;;5.30;4.80;;;22.30;89.50;;;;;;5060124;28;20196;-85
2022/10/18 10:59:47;;;;;;;6.65;6.10;;;22.70;88.50;;;;;;5044852;28;20165;-86
2022/10/18 11:02:14;;;;;;;7.15;5.43;;;23.00;85.60;;;;;;5050954;28;20219;-86
2022/10/18 11:04:40;;;;;;;6.13;5.15;;;22.90;86.20;;;;;;5046766;28;20200;-87
2022/10/18 11:07:25;;;;;;;6.97;4.90;;;23.00;85.60;;;;;;5059891;28;20199;-87
2022/10/18 11:10:05;;;;;;;5.40;4.85;;;23.10;85.50;;;;;;5049841;28;20219;-86
2022/10/18 11:12:45;;;;;;;5.60;4.50;;;22.80;87.30;;;;;;5042554;28;20216;-88
2022/10/18 11:15:25;;;;;;;5.20;4.70;;;23.00;87.10;;;;;;5046294;28;20222;-90
2022/10/18 11:17:59;;;;;;;8.13;5.18;;;23.20;85.70;;;;;;5048712;28;20195;-88
2022/10/18 11:20:37;;;;;;;7.30;4.82;;;23.20;85.20;;;;;;5051094;28;20664;-86
2022/10/18 11:23:15;;;;;;;5.25;4.22;;;23.10;87.10;;;;;;5057060;28;20197;-87
2022/10/18 11:25:58;;;;;;;5.07;4.68;;;23.00;87.00;;;;;;5053543;28;20251;-87
2022/10/18 11:28:37;;;;;;;6.88;5.00;;;22.80;87.40;;;;;;5055154;28;20184;-86
2022/10/18 11:31:06;;;;;;;8.32;5.00;;;22.60;88.90;;;;;;5055386;28;20191;-86
2022/10/18 11:33:50;;;;;;;5.00;4.50;;;22.70;88.20;;;;;;5049147;28;20254;-87
2022/10/18 11:36:26;;;;;;;5.65;4.30;;;22.80;87.50;;;;;;5051900;28;20239;-86
2022/10/18 11:39:18;;;;;;;5.55;4.40;;;22.90;87.20;;;;;;5053696;28;20191;-87
2022/10/18 11:41:55;;;;;;;5.13;4.63;;;22.80;87.90;;;;;;5043864;28;20707;-86
2022/10/18 11:44:47;;;;;;;5.82;5.28;;;22.80;87.70;;;;;;5043663;28;20299;-87
2022/10/18 11:47:33;;;;;;;6.15;5.05;;;22.90;87.50;;;;;;5032645;28;20249;-87
2022/10/18 11:50:07;;;;;;;5.07;4.53;;;22.90;87.90;;;;;;5049948;28;20199;-87
2022/10/18 11:52:42;;;;;;;4.68;4.28;;;23.10;86.90;;;;;;5050086;28;20227;-87
2022/10/18 11:55:53;;;;;;;4.65;4.25;;;23.30;84.40;;;;;;5041119;28;20190;-87
2022/10/18 11:58:56;;;;;;;4.30;4.00;;;23.50;83.10;;;;;;5050907;28;20200;-87
2022/10/18 12:01:30;;;;;;;4.50;4.10;;;23.90;82.00;;;;;;5057583;28;20172;-86
2022/10/18 12:04:13;;;;;;;5.10;4.60;;;24.00;80.30;;;;;;5045019;28;20242;-87
2022/10/18 12:06:41;;;;;;;4.43;4.10;;;23.70;81.30;;;;;;5041885;28;20180;-88
2022/10/18 12:09:18;;;;;;;5.13;4.43;;;23.60;83.50;;;;;;5043672;28;20196;-89
2022/10/18 12:11:50;;;;;;;4.75;4.30;;;23.50;82.00;;;;;;5051512;28;20204;-86
2022/10/18 12:14:29;;;;;;;5.13;4.60;;;23.50;82.30;;;;;;5045242;28;20267;-87
2022/10/18 12:17:01;;;;;;;4.57;4.18;;;23.30;83.20;;;;;;5046650;28;20200;-86
2022/10/18 12:19:31;;;;;;;5.43;4.55;;;23.20;83.10;;;;;;5053534;28;20180;-87
2022/10/18 12:22:07;;;;;;;4.97;4.47;;;23.10;86.50;;;;;;5046831;28;20203;-87
2022/10/18 12:24:34;;;;;;;4.60;4.30;;;22.90;85.80;;;;;;5045922;28;20219;-86
2022/10/18 12:27:01;;;;;;;4.50;4.20;;;22.80;87.80;;;;;;5045578;28;20260;-86
2022/10/18 12:29:33;;;;;;;5.07;4.57;;;22.60;87.20;;;;;;5055565;28;20215;-86
2022/10/18 12:32:09;;;;;;;4.28;3.90;;;22.60;89.00;;;;;;5048624;28;20228;-86
2022/10/18 12:34:48;;;;;;;4.68;4.28;;;22.70;89.10;;;;;;5041753;28;20432;-87
2022/10/18 12:37:28;;;;;;;5.13;4.50;;;22.70;88.50;;;;;;5039338;28;20196;-86
2022/10/18 12:40:02;;;;;;;4.40;4.07;;;22.70;88.80;;;;;;5049988;28;20719;-86
2022/10/18 12:42:31;;;;;;;5.10;4.20;;;22.80;88.40;;;;;;5049753;28;20211;-87
2022/10/18 12:45:12;;;;;;;4.45;4.00;;;22.90;87.00;;;;;;5051763;28;20185;-88
2022/10/18 12:47:39;;;;;;;4.03;3.72;;;23.10;85.40;;;;;;5027540;28;20185;-87
2022/10/18 12:50:26;;;;;;;4.03;3.70;;;23.20;82.90;;;;;;5051419;28;20181;-86
2022/10/18 12:53:17;;;;;;;3.70;3.40;;;23.00;83.10;;;;;;5027778;28;20261;-88
2022/10/18 12:55:47;;;;;;;4.10;3.70;;;22.80;83.70;;;;;;5042846;28;20187;-85
2022/10/18 12:58:12;;;;;;;3.90;3.65;;;22.80;84.80;;;;;;5061316;28;20188;-86
2022/10/18 13:00:40;;;;;;;5.43;3.63;;;22.80;84.80;;;;;;5055940;28;20192;-86
2022/10/18 13:03:09;;;;;;;5.85;3.60;;;22.70;85.30;;;;;;5048302;28;20213;-87
2022/10/18 13:06:04;;;;;;;4.30;3.90;;;22.80;86.30;;;;;;5059844;28;20176;-87